createdAt,value
2018-11-05T00:04:22.347Z,14.07
2018-11-05T00:06:55.220Z,18.20
2018-11-05T00:09:31.880Z,17.30
2018-11-05T00:12:04.738Z,23.63
2018-11-05T00:14:38.850Z,29.40
2018-11-05T00:17:12.785Z,35.67
2018-11-05T00:19:47.487Z,35.43
2018-11-05T00:22:20.795Z,29.03
2018-11-05T00:24:53.999Z,26.97
2018-11-05T00:30:16.967Z,28.90
2018-11-05T00:32:50.163Z,31.90
2018-11-05T00:35:23.355Z,28.70
2018-11-05T00:37:56.756Z,25.20
2018-11-05T00:40:29.071Z,21.40
2018-11-05T00:43:02.025Z,26.27
2018-11-05T00:45:35.000Z,20.87
2018-11-05T00:48:07.925Z,25.60
2018-11-05T00:50:40.908Z,30.30
2018-11-05T00:53:13.798Z,26.50
2018-11-05T00:55:46.774Z,30.27
2018-11-05T00:58:19.580Z,22.47
2018-11-05T01:00:52.915Z,17.53
2018-11-05T01:03:26.851Z,17.00
2018-11-05T01:05:59.656Z,20.10
2018-11-05T01:08:32.836Z,18.77
2018-11-05T01:11:05.751Z,14.40
2018-11-05T01:13:38.876Z,14.90
2018-11-05T01:16:11.811Z,19.43
2018-11-05T01:18:45.269Z,15.63
2018-11-05T01:21:18.104Z,21.53
2018-11-05T01:23:51.270Z,15.33
2018-11-05T01:26:24.207Z,16.37
2018-11-05T01:28:57.412Z,17.97
2018-11-05T01:31:29.822Z,24.37
2018-11-05T01:34:02.144Z,20.27
2018-11-05T01:36:34.635Z,15.00
2018-11-05T01:39:10.696Z,18.70
2018-11-05T01:41:43.299Z,18.73
2018-11-05T01:44:15.915Z,19.03
2018-11-05T01:46:52.913Z,18.40
2018-11-05T01:49:25.519Z,20.53
2018-11-05T01:51:58.082Z,22.20
2018-11-05T01:54:31.039Z,24.27
2018-11-05T01:57:03.923Z,25.47
2018-11-05T01:59:36.916Z,26.00
2018-11-05T02:02:10.509Z,18.03
2018-11-05T02:04:43.862Z,23.23
2018-11-05T02:07:19.089Z,18.03
2018-11-05T02:09:52.379Z,19.40
2018-11-05T02:12:25.443Z,22.57
2018-11-05T02:14:58.602Z,31.13
2018-11-05T02:17:30.786Z,17.90
2018-11-05T02:20:04.032Z,20.57
2018-11-05T02:22:37.063Z,16.70
2018-11-05T02:28:31.998Z,19.20
2018-11-05T02:31:28.637Z,23.03
2018-11-05T02:34:02.915Z,14.60
2018-11-05T02:36:35.996Z,17.90
2018-11-05T02:39:11.628Z,17.33
2018-11-05T02:41:44.954Z,18.20
2018-11-05T02:44:18.516Z,17.17
2018-11-05T02:46:52.419Z,18.37
2018-11-05T02:49:26.746Z,16.03
2018-11-05T02:52:10.053Z,22.30
2018-11-05T02:54:47.917Z,28.27
2018-11-05T02:57:20.642Z,20.30
2018-11-05T03:03:17.618Z,18.33
2018-11-05T03:05:50.216Z,20.83
2018-11-05T03:08:23.075Z,18.63
2018-11-05T03:10:55.281Z,18.20
2018-11-05T03:13:27.634Z,17.93
2018-11-05T03:15:59.870Z,19.37
2018-11-05T03:18:32.330Z,25.03
2018-11-05T03:21:04.700Z,19.20
2018-11-05T03:23:36.864Z,16.00
2018-11-05T03:26:13.548Z,17.50
2018-11-05T03:28:45.919Z,20.23
2018-11-05T03:31:18.584Z,19.20
2018-11-05T03:33:51.378Z,16.53
2018-11-05T03:36:24.063Z,17.40
2018-11-05T03:38:57.620Z,15.97
2018-11-05T03:41:32.893Z,17.40
2018-11-05T03:44:05.392Z,20.07
2018-11-05T03:46:37.991Z,16.07
2018-11-05T03:49:11.891Z,17.63
2018-11-05T03:51:44.411Z,19.53
2018-11-05T03:54:17.301Z,16.03
2018-11-05T03:56:49.608Z,15.83
2018-11-05T03:59:22.382Z,13.67
2018-11-05T04:01:55.593Z,14.50
2018-11-05T04:04:28.451Z,13.17
2018-11-05T04:07:00.759Z,12.87
2018-11-05T04:09:33.197Z,12.53
2018-11-05T04:12:06.072Z,9.00
2018-11-05T04:14:38.381Z,13.10
2018-11-05T04:17:10.666Z,10.40
2018-11-05T04:23:05.454Z,16.87
2018-11-05T04:29:00.052Z,13.37
2018-11-05T04:31:33.006Z,13.97
2018-11-05T04:34:05.931Z,14.27
2018-11-05T04:36:39.014Z,14.83
2018-11-05T04:39:15.755Z,13.10
2018-11-05T04:45:19.446Z,12.03
2018-11-05T04:47:52.624Z,12.40
2018-11-05T04:50:25.932Z,15.43
2018-11-05T04:56:19.851Z,14.80
2018-11-05T04:58:53.238Z,14.23
2018-11-05T05:01:26.542Z,12.13
2018-11-05T05:03:59.400Z,15.00
2018-11-05T05:06:32.121Z,11.63
2018-11-05T05:09:05.618Z,10.67
2018-11-05T05:11:40.194Z,12.80
2018-11-05T05:14:15.555Z,13.40
2018-11-05T05:16:50.693Z,14.23
2018-11-05T05:19:24.254Z,11.93
2018-11-05T05:21:59.165Z,16.90
2018-11-05T05:24:34.710Z,10.60
2018-11-05T05:27:10.077Z,11.23
2018-11-05T05:29:45.039Z,15.10
2018-11-05T05:32:20.453Z,13.47
2018-11-05T05:34:53.517Z,13.63
2018-11-05T05:37:26.786Z,10.63
2018-11-05T05:39:59.635Z,13.17
2018-11-05T05:42:32.701Z,12.43
2018-11-05T05:45:05.742Z,14.57
2018-11-05T05:47:38.850Z,12.97
2018-11-05T05:50:18.003Z,15.10
2018-11-05T05:52:51.567Z,12.83
2018-11-05T05:55:24.713Z,14.10
2018-11-05T05:57:58.362Z,15.40
2018-11-05T06:00:31.662Z,11.07
2018-11-05T06:03:04.875Z,12.40
2018-11-05T06:05:37.884Z,13.57
2018-11-05T06:08:10.827Z,12.23
2018-11-05T06:10:44.383Z,11.30
2018-11-05T06:13:16.816Z,12.10
2018-11-05T06:15:49.629Z,15.57
2018-11-05T06:18:23.476Z,13.03
2018-11-05T06:20:56.524Z,15.07
2018-11-05T06:23:29.160Z,10.43
2018-11-05T06:26:02.098Z,8.83
2018-11-05T06:28:34.791Z,10.00
2018-11-05T06:31:08.148Z,11.73
2018-11-05T06:33:41.466Z,10.17
2018-11-05T06:36:13.921Z,9.83
2018-11-05T06:38:46.369Z,9.13
2018-11-05T06:41:19.873Z,11.77
2018-11-05T06:43:53.629Z,9.43
2018-11-05T06:46:26.268Z,9.63
2018-11-05T06:48:59.340Z,9.93
2018-11-05T06:51:32.676Z,8.53
2018-11-05T06:54:06.775Z,8.47
2018-11-05T06:56:39.674Z,8.03
2018-11-05T06:59:12.792Z,7.03
2018-11-05T07:01:45.802Z,7.17
2018-11-05T07:04:18.960Z,7.60
2018-11-05T07:06:52.352Z,7.97
2018-11-05T07:09:25.342Z,10.20
2018-11-05T07:11:57.740Z,7.10
2018-11-05T07:14:30.621Z,7.07
2018-11-05T07:17:03.444Z,7.23
2018-11-05T07:19:36.212Z,8.47
2018-11-05T07:22:09.726Z,7.90
2018-11-05T07:24:42.042Z,7.77
2018-11-05T07:27:14.583Z,7.10
2018-11-05T07:29:47.558Z,11.63
2018-11-05T07:32:20.349Z,12.30
2018-11-05T07:34:53.370Z,8.10
2018-11-05T07:37:25.994Z,7.57
2018-11-05T07:39:59.062Z,7.50
2018-11-05T07:42:32.274Z,8.90
2018-11-05T07:45:05.460Z,9.70
2018-11-05T07:47:38.377Z,9.57
2018-11-05T07:50:14.694Z,9.93
2018-11-05T07:52:47.806Z,8.87
2018-11-05T07:58:41.745Z,10.07
2018-11-05T08:01:50.477Z,11.97
2018-11-05T08:04:23.849Z,14.57
2018-11-05T08:10:17.738Z,21.17
2018-11-05T08:12:50.713Z,23.13
2018-11-05T08:15:24.854Z,17.67
2018-11-05T08:17:57.740Z,17.23
2018-11-05T08:20:30.724Z,16.47
2018-11-05T08:23:03.607Z,15.50
2018-11-05T08:25:36.646Z,21.60
2018-11-05T08:28:09.334Z,16.77
2018-11-05T08:30:42.559Z,14.57
2018-11-05T08:33:15.472Z,16.87
2018-11-05T08:35:48.706Z,16.30
2018-11-05T08:38:22.019Z,16.70
2018-11-05T08:40:55.154Z,16.77
2018-11-05T08:43:28.331Z,13.87
2018-11-05T08:46:01.395Z,12.57
2018-11-05T08:48:34.232Z,11.53
2018-11-05T08:51:21.830Z,12.80
2018-11-05T08:53:54.533Z,12.33
2018-11-05T08:56:27.536Z,15.33
2018-11-05T09:00:01.064Z,15.70
2018-11-05T09:02:33.809Z,18.20
2018-11-05T09:05:06.777Z,17.60
2018-11-05T09:07:39.579Z,17.00
2018-11-05T09:10:12.829Z,17.33
2018-11-05T09:12:45.961Z,16.17
2018-11-05T09:15:19.999Z,13.23
2018-11-05T09:17:52.703Z,16.43
2018-11-05T09:20:25.304Z,18.03
2018-11-05T09:22:58.148Z,16.13
2018-11-05T09:25:31.075Z,20.27
2018-11-05T09:28:04.307Z,22.97
2018-11-05T09:30:37.463Z,24.13
2018-11-05T09:33:11.404Z,21.57
2018-11-05T09:35:44.249Z,17.70
2018-11-05T09:38:17.497Z,14.60
2018-11-05T09:40:50.402Z,14.97
2018-11-05T09:43:23.740Z,15.73
2018-11-05T09:45:56.162Z,12.97
2018-11-05T09:48:29.255Z,13.80
2018-11-05T09:51:02.145Z,11.20
2018-11-05T09:53:35.179Z,13.83
2018-11-05T09:56:07.977Z,20.30
2018-11-05T09:58:40.944Z,19.07
2018-11-05T10:01:13.357Z,22.13
2018-11-05T10:03:51.145Z,17.47
2018-11-05T10:06:25.150Z,20.07
2018-11-05T10:12:20.111Z,21.53
2018-11-05T10:18:23.978Z,30.30
2018-11-05T10:20:57.243Z,19.07
2018-11-05T10:23:32.536Z,15.10
2018-11-05T10:26:09.643Z,14.43
2018-11-05T10:28:43.226Z,14.53
2018-11-05T10:31:21.011Z,15.77
2018-11-05T10:33:54.393Z,20.00
2018-11-05T10:36:27.545Z,19.97
2018-11-05T10:39:01.037Z,20.60
2018-11-05T10:41:34.281Z,29.43
2018-11-05T10:44:08.200Z,23.83
2018-11-05T10:50:02.358Z,19.00
2018-11-05T10:56:06.090Z,20.23
2018-11-05T10:58:38.737Z,21.20
2018-11-05T11:01:15.289Z,20.57
2018-11-05T11:03:52.548Z,22.30
2018-11-05T11:06:25.727Z,27.17
2018-11-05T11:08:58.816Z,23.27
2018-11-05T11:11:32.317Z,20.83
2018-11-05T11:14:05.529Z,22.03
2018-11-05T11:17:08.857Z,26.30
2018-11-05T11:19:41.894Z,28.47
2018-11-05T11:22:16.525Z,25.77
2018-11-05T11:24:48.993Z,22.53
2018-11-05T11:27:23.402Z,20.63
2018-11-05T11:29:56.641Z,21.93
2018-11-05T11:32:29.978Z,20.57
2018-11-05T11:35:02.823Z,27.53
2018-11-05T11:37:35.981Z,28.13
2018-11-05T11:40:11.375Z,29.33
2018-11-05T11:42:45.384Z,29.43
2018-11-05T11:45:19.060Z,25.23
2018-11-05T11:47:51.964Z,28.63
2018-11-05T11:50:24.857Z,25.83
2018-11-05T11:52:57.347Z,24.17
2018-11-05T11:55:30.281Z,23.87
2018-11-05T11:58:03.742Z,27.87
2018-11-05T12:00:38.698Z,22.20
2018-11-05T12:03:11.814Z,24.83
2018-11-05T12:05:44.803Z,24.97
2018-11-05T12:08:17.791Z,34.40
2018-11-05T12:10:52.291Z,39.77
2018-11-05T12:13:25.245Z,27.40
2018-11-05T12:15:58.476Z,26.67
2018-11-05T12:18:34.350Z,28.20
2018-11-05T12:21:09.550Z,34.43
2018-11-05T12:27:04.830Z,25.90
2018-11-05T12:29:37.631Z,24.67
2018-11-05T12:35:42.294Z,27.43
2018-11-05T12:38:15.773Z,25.50
2018-11-05T12:40:49.170Z,29.70
2018-11-05T12:43:23.510Z,22.20
2018-11-05T12:45:56.571Z,27.07
2018-11-05T12:48:33.193Z,32.83
2018-11-05T12:51:07.518Z,31.17
2018-11-05T12:53:45.569Z,28.90
2018-11-05T12:56:20.268Z,31.87
2018-11-05T12:58:54.715Z,28.00
2018-11-05T13:01:30.517Z,28.40
2018-11-05T13:04:03.768Z,23.60
2018-11-05T13:06:37.092Z,23.93
2018-11-05T13:09:12.168Z,26.73
2018-11-05T13:11:45.436Z,24.93
2018-11-05T13:14:18.426Z,28.17
2018-11-05T13:16:52.180Z,24.03
2018-11-05T13:19:25.577Z,23.30
2018-11-05T13:21:58.825Z,25.63
2018-11-05T13:24:32.359Z,24.67
2018-11-05T13:27:06.325Z,26.67
2018-11-05T13:29:39.477Z,24.43
2018-11-05T13:32:12.596Z,21.80
2018-11-05T13:38:07.212Z,25.20
2018-11-05T13:40:39.663Z,19.80
2018-11-05T13:46:32.386Z,19.43
2018-11-05T13:49:31.323Z,19.73
2018-11-05T13:52:27.637Z,17.90
2018-11-05T13:55:26.154Z,18.43
2018-11-05T13:58:03.286Z,16.20
2018-11-05T14:00:42.026Z,16.57
2018-11-05T14:03:15.178Z,16.10
2018-11-05T14:05:48.258Z,14.97
2018-11-05T14:08:20.944Z,15.17
2018-11-05T14:10:53.599Z,19.43
2018-11-05T14:13:26.392Z,18.03
2018-11-05T14:22:47.658Z,16.43
2018-11-05T14:25:21.334Z,15.63
2018-11-05T14:27:56.237Z,18.20
2018-11-05T14:30:28.923Z,15.13
2018-11-05T14:33:02.468Z,15.47
2018-11-05T14:35:36.431Z,15.63
2018-11-05T14:38:09.778Z,12.23
2018-11-05T14:40:43.451Z,12.67
2018-11-05T14:43:24.254Z,11.23
2018-11-05T14:46:10.263Z,12.17
2018-11-05T14:48:43.909Z,14.77
2018-11-05T14:51:16.793Z,16.73
2018-11-05T14:53:50.432Z,18.93
2018-11-05T14:56:23.533Z,18.17
2018-11-05T14:58:56.711Z,16.63
2018-11-05T15:01:33.300Z,13.00
2018-11-05T15:04:11.094Z,17.27
2018-11-05T15:06:51.184Z,22.00
2018-11-05T15:12:45.137Z,17.17
2018-11-05T15:15:23.799Z,12.27
2018-11-05T15:18:03.331Z,13.10
2018-11-05T15:20:41.258Z,11.20
2018-11-05T15:23:36.138Z,14.47
2018-11-05T15:26:33.918Z,25.77
2018-11-05T15:29:28.654Z,16.73
2018-11-05T15:32:19.210Z,16.97
2018-11-05T15:35:02.677Z,14.43
2018-11-05T15:37:46.308Z,8.57
2018-11-05T15:40:25.446Z,9.87
2018-11-05T15:42:59.783Z,12.57
2018-11-05T15:45:32.901Z,9.87
2018-11-05T15:48:07.925Z,10.17
2018-11-05T15:50:42.899Z,8.57
2018-11-05T15:53:18.457Z,10.87
2018-11-05T15:55:53.333Z,10.50
2018-11-05T15:58:27.265Z,16.33
2018-11-05T16:01:00.587Z,14.63
2018-11-05T16:03:34.068Z,16.70
2018-11-05T16:06:07.450Z,9.27
2018-11-05T16:08:47.526Z,10.90
2018-11-05T16:14:45.993Z,7.97
2018-11-05T16:17:27.401Z,9.83
2018-11-05T16:20:03.601Z,11.13
2018-11-05T16:22:37.710Z,25.37
2018-11-05T16:25:13.549Z,11.63
2018-11-05T16:27:51.054Z,17.70
2018-11-05T16:30:28.594Z,10.23
2018-11-05T16:33:00.970Z,8.10
2018-11-05T16:35:40.597Z,18.60
2018-11-05T16:38:16.978Z,15.10
2018-11-05T16:40:51.220Z,7.60
2018-11-05T16:43:31.245Z,19.30
2018-11-05T16:46:05.771Z,8.23
2018-11-05T16:48:38.045Z,6.63
2018-11-05T16:51:11.162Z,9.33
2018-11-05T16:53:45.024Z,17.43
2018-11-05T16:56:22.711Z,21.23
2018-11-05T16:58:56.483Z,15.90
2018-11-05T17:01:37.936Z,26.93
2018-11-05T17:04:10.993Z,10.40
2018-11-05T17:06:43.686Z,7.43
2018-11-05T17:09:16.047Z,6.00
2018-11-05T17:11:52.924Z,6.83
2018-11-05T17:14:27.630Z,87.03
2018-11-05T17:17:00.424Z,10.23
2018-11-05T17:19:36.736Z,24.40
2018-11-05T17:22:09.448Z,12.10
2018-11-05T17:24:44.511Z,10.20
2018-11-05T17:27:19.002Z,8.55
2018-11-05T17:29:52.021Z,12.13
2018-11-05T17:32:24.357Z,15.85
2018-11-05T17:34:57.229Z,7.53
2018-11-05T17:37:29.715Z,8.33
2018-11-05T17:40:04.097Z,7.70
2018-11-05T17:42:40.918Z,14.63
2018-11-05T17:45:16.434Z,14.78
2018-11-05T17:47:56.641Z,10.58
2018-11-05T17:50:32.516Z,13.15
2018-11-05T17:53:06.611Z,11.93
2018-11-05T17:55:39.399Z,10.82
2018-11-05T17:58:14.027Z,6.72
2018-11-05T18:00:49.253Z,7.42
2018-11-05T18:34:55.934Z,6.75
2018-11-05T18:37:30.538Z,9.70
2018-11-05T19:03:30.061Z,11.85
2018-11-05T19:06:03.972Z,10.80
2018-11-05T19:08:37.645Z,4.65
2018-11-05T19:11:11.040Z,8.40
2018-11-05T19:13:45.886Z,6.62
2018-11-05T19:16:30.529Z,11.53
2018-11-05T19:19:07.296Z,10.85
2018-11-05T19:21:57.386Z,7.92
2018-11-05T19:24:37.874Z,8.88
2018-11-05T19:27:14.389Z,11.55
2018-11-05T19:29:50.024Z,7.33
2018-11-05T19:32:26.360Z,9.15
2018-11-05T19:35:01.561Z,10.75
2018-11-05T19:40:15.620Z,8.38
2018-11-05T19:42:52.873Z,9.20
2018-11-05T19:45:28.886Z,7.03
2018-11-05T19:50:36.731Z,10.32
2018-11-05T20:03:21.862Z,4.20
2018-11-05T20:36:14.552Z,6.60
2018-11-05T20:38:47.605Z,5.75
2018-11-05T20:41:20.924Z,12.23
2018-11-05T20:43:56.563Z,9.43
2018-11-05T20:46:34.137Z,8.37
2018-11-05T20:49:07.912Z,7.80
2018-11-05T20:51:41.052Z,9.60
2018-11-05T20:54:15.025Z,10.93
2018-11-05T20:56:47.602Z,9.93
2018-11-05T20:59:25.458Z,5.80
2018-11-05T21:02:38.295Z,9.17
2018-11-05T21:05:11.627Z,6.20
2018-11-05T21:07:50.055Z,11.63
2018-11-05T21:10:26.790Z,6.53
2018-11-05T21:13:01.914Z,14.37
2018-11-05T21:15:35.190Z,11.53
2018-11-05T21:18:09.037Z,8.07
2018-11-05T21:20:42.413Z,8.80
2018-11-05T21:23:15.312Z,12.57
2018-11-05T21:25:49.318Z,7.40
2018-11-05T21:28:22.797Z,5.53
2018-11-05T21:30:56.213Z,14.33
2018-11-05T21:33:29.707Z,15.43
2018-11-05T21:36:02.815Z,7.63
2018-11-05T21:38:36.629Z,16.37
2018-11-05T21:41:09.857Z,12.60
2018-11-05T21:43:42.908Z,22.10
2018-11-05T21:46:15.742Z,9.70
2018-11-05T21:48:48.808Z,10.97
2018-11-05T21:51:58.999Z,19.07
2018-11-05T21:54:31.613Z,16.27
2018-11-05T21:57:05.182Z,15.43
2018-11-05T21:59:37.912Z,12.37
2018-11-05T22:02:10.486Z,12.10
2018-11-05T22:04:43.607Z,6.73
2018-11-05T22:07:18.144Z,7.10
2018-11-05T22:09:51.155Z,10.50
2018-11-05T22:12:24.846Z,17.77
2018-11-05T22:14:59.463Z,16.33
2018-11-05T22:17:33.998Z,20.13
2018-11-05T22:20:06.830Z,11.90
2018-11-05T22:22:40.519Z,10.13
2018-11-05T22:25:13.981Z,8.00
2018-11-05T22:27:47.044Z,8.67
2018-11-05T22:30:20.221Z,10.03
2018-11-05T22:32:53.611Z,6.70
2018-11-05T22:35:26.768Z,8.10
2018-11-05T22:37:59.922Z,11.33
2018-11-05T22:40:32.789Z,13.67
2018-11-05T22:43:06.441Z,10.83
2018-11-05T22:45:39.767Z,10.27
2018-11-05T22:48:12.689Z,10.43
2018-11-05T22:50:45.791Z,13.10
2018-11-05T22:53:18.883Z,17.07
2018-11-05T22:55:51.734Z,11.43
2018-11-05T22:58:24.136Z,13.70
2018-11-05T23:01:01.463Z,14.27
2018-11-05T23:03:34.701Z,9.23
2018-11-05T23:06:08.195Z,13.20
2018-11-05T23:12:03.231Z,11.60
2018-11-05T23:14:36.309Z,12.37
2018-11-05T23:17:08.892Z,7.70
2018-11-05T23:19:42.032Z,12.77
2018-11-05T23:22:14.867Z,11.83
2018-11-05T23:24:47.448Z,12.13
2018-11-05T23:27:20.806Z,5.37
2018-11-05T23:29:53.621Z,13.83
2018-11-05T23:32:26.848Z,9.67
2018-11-05T23:38:20.367Z,7.77
2018-11-05T23:40:52.796Z,5.57
2018-11-05T23:43:25.960Z,10.47
2018-11-05T23:45:58.359Z,8.37
2018-11-05T23:48:31.402Z,11.57
2018-11-05T23:51:04.423Z,5.77
2018-11-05T23:53:37.592Z,10.90
2018-11-05T23:56:10.289Z,13.27
2018-11-05T23:59:10.071Z,11.77
